Time;durP1;ratioP1;P1;durP2;ratioP2;P2;SDS_P1;SDS_P2;PMS_P1;PMS_P2;Temp;Humidity;BMP_temperature;BMP_pressure;BME280_temperature;BME280_humidity;BME280_pressure;Samples;Min_cycle;Max_cycle;Signal;HPM_P1;HPM_P2
2023/01/04 00:00:24;;;;;;;;;;;;;;;25.55;20.33;99414.03;4980951;28;19926;-89
2023/01/04 00:02:50;;;;;;;;;;;;;;;25.24;20.65;99410.97;4986662;28;19917;-89
2023/01/04 00:05:16;;;;;;;;;;;;;;;25.34;20.92;99415.72;4989899;28;20270;-89
2023/01/04 00:07:42;;;;;;;;;;;;;;;25.55;20.21;99412.03;4981150;28;19918;-89
2023/01/04 00:10:08;;;;;;;;;;;;;;;25.68;20.08;99415.13;4997789;28;20376;-89
2023/01/04 00:12:35;;;;;;;;;;;;;;;25.86;19.87;99421.41;4989288;28;19922;-89
2023/01/04 00:15:01;;;;;;;;;;;;;;;25.83;19.43;99416.63;4986261;28;19924;-90
2023/01/04 00:17:27;;;;;;;;;;;;;;;25.72;20.06;99415.94;4990193;28;19934;-90
2023/01/04 00:19:53;;;;;;;;;;;;;;;25.81;19.75;99408.59;4976047;28;19922;-90
2023/01/04 00:22:19;;;;;;;;;;;;;;;25.51;19.96;99408.41;4986851;28;19982;-90
2023/01/04 00:24:45;;;;;;;;;;;;;;;25.45;20.35;99414.88;4989936;28;20323;-90
2023/01/04 00:27:11;;;;;;;;;;;;;;;25.62;20.46;99428.03;4986119;28;19925;-90
2023/01/04 00:29:37;;;;;;;;;;;;;;;25.05;20.42;99428.34;4985380;28;19922;-90
2023/01/04 00:32:03;;;;;;;;;;;;;;;24.95;21.01;99434.78;4992438;28;19922;-90
2023/01/04 00:34:29;;;;;;;;;;;;;;;25.27;20.50;99441.09;4989689;28;19921;-90
2023/01/04 00:36:55;;;;;;;;;;;;;;;25.24;20.77;99436.28;4983838;28;20012;-90
2023/01/04 00:39:21;;;;;;;;;;;;;;;25.07;20.66;99427.91;4988041;28;20049;-90
2023/01/04 00:41:48;;;;;;;;;;;;;;;24.81;21.00;99420.78;4981070;28;20387;-89
2023/01/04 00:44:15;;;;;;;;;;;;;;;24.94;21.19;99419.16;4980852;28;19918;-90
2023/01/04 00:46:41;;;;;;;;;;;;;;;25.19;20.68;99424.66;4990968;28;19921;-90
2023/01/04 00:49:09;;;;;;;;;;;;;;;25.37;20.58;99416.91;5000881;28;20013;-89
2023/01/04 00:51:35;;;;;;;;;;;;;;;25.31;20.81;99413.75;4979799;28;19961;-90
2023/01/04 00:54:04;;;;;;;;;;;;;;;25.58;20.39;99402.75;4986050;28;19929;-90
2023/01/04 00:56:31;;;;;;;;;;;;;;;25.51;20.03;99413.25;4989780;28;19965;-89
2023/01/04 00:58:58;;;;;;;;;;;;;;;25.01;20.87;99409.88;4977706;28;19921;-89
2023/01/04 01:01:25;;;;;;;;;;;;;;;25.15;20.52;99409.81;4991143;28;19922;-89
2023/01/04 01:03:52;;;;;;;;;;;;;;;25.28;20.88;99413.75;4983552;28;19995;-89
2023/01/04 01:06:18;;;;;;;;;;;;;;;25.27;19.92;99421.41;4984815;28;19918;-90
2023/01/04 01:08:44;;;;;;;;;;;;;;;25.24;20.54;99418.59;4989010;28;19922;-90
2023/01/04 01:11:10;;;;;;;;;;;;;;;25.35;20.27;99408.91;4988319;28;19926;-90
2023/01/04 01:13:37;;;;;;;;;;;;;;;25.53;19.78;99408.03;4979822;28;19980;-90
2023/01/04 01:16:04;;;;;;;;;;;;;;;25.56;19.98;99405.16;4981719;28;20285;-90
2023/01/04 01:18:30;;;;;;;;;;;;;;;24.95;19.80;99405.91;4990163;28;20308;-90
2023/01/04 01:20:56;;;;;;;;;;;;;;;24.48;20.82;99404.44;4988766;28;19976;-90
2023/01/04 01:23:22;;;;;;;;;;;;;;;24.35;20.58;99400.44;4990849;28;19975;-90
2023/01/04 01:25:48;;;;;;;;;;;;;;;24.41;21.16;99398.84;4984625;28;19929;-90
2023/01/04 01:28:14;;;;;;;;;;;;;;;24.36;20.56;99396.44;4984464;28;19921;-90
2023/01/04 01:30:41;;;;;;;;;;;;;;;24.14;20.83;99392.06;4991895;28;20274;-89
2023/01/04 01:33:10;;;;;;;;;;;;;;;24.40;20.71;99395.22;4988586;28;20296;-89
2023/01/04 01:35:36;;;;;;;;;;;;;;;24.64;19.94;99393.56;4982693;28;19924;-89
2023/01/04 01:38:02;;;;;;;;;;;;;;;24.04;20.47;99391.63;4983720;28;19922;-89
2023/01/04 01:40:28;;;;;;;;;;;;;;;24.26;20.24;99395.25;4991645;28;19976;-89
2023/01/04 01:42:54;;;;;;;;;;;;;;;24.49;19.85;99390.00;4986893;28;19922;-89
2023/01/04 01:45:23;;;;;;;;;;;;;;;24.61;19.74;99389.56;4989060;28;19992;-89
2023/01/04 01:47:50;;;;;;;;;;;;;;;24.43;20.53;99397.25;4983471;28;19922;-89
2023/01/04 01:50:19;;;;;;;;;;;;;;;24.53;19.99;99387.16;4982786;28;19922;-89
2023/01/04 01:52:45;;;;;;;;;;;;;;;24.44;19.77;99387.59;4989872;28;19988;-89
2023/01/04 01:55:11;;;;;;;;;;;;;;;23.97;20.14;99380.44;4969375;28;19922;-89
2023/01/04 01:57:38;;;;;;;;;;;;;;;23.64;20.72;99375.22;4988241;28;20302;-89
2023/01/04 02:00:07;;;;;;;;;;;;;;;23.98;20.57;99386.84;4981448;28;19929;-89
2023/01/04 02:02:33;;;;;;;;;;;;;;;24.36;20.43;99388.03;4991537;28;20374;-89
2023/01/04 02:05:00;;;;;;;;;;;;;;;24.33;19.51;99380.41;4992343;28;19921;-89
2023/01/04 02:07:27;;;;;;;;;;;;;;;24.11;19.71;99385.25;4982721;28;19926;-89
2023/01/04 02:09:54;;;;;;;;;;;;;;;24.21;19.73;99386.44;4983575;28;19921;-90
2023/01/04 02:12:20;;;;;;;;;;;;;;;24.24;19.65;99394.88;4994730;28;19928;-89
2023/01/04 02:14:48;;;;;;;;;;;;;;;24.04;19.88;99393.63;4991822;28;19925;-89
2023/01/04 02:17:31;;;;;;;;;;;;;;;23.97;20.12;99405.69;4979985;28;19926;-89
2023/01/04 02:20:07;;;;;;;;;;;;;;;24.13;19.91;99404.50;4984088;28;20287;-89
2023/01/04 02:22:36;;;;;;;;;;;;;;;24.31;19.67;99396.84;4984129;28;19930;-89
2023/01/04 02:25:16;;;;;;;;;;;;;;;24.24;19.66;99402.47;4983357;28;19922;-89
2023/01/04 02:28:05;;;;;;;;;;;;;;;24.14;20.04;99406.91;4984977;28;19922;-89
2023/01/04 02:30:52;;;;;;;;;;;;;;;24.29;19.79;99402.06;4980644;28;19922;-89
2023/01/04 02:33:18;;;;;;;;;;;;;;;24.51;19.72;99395.19;4979975;28;19918;-89
2023/01/04 02:35:57;;;;;;;;;;;;;;;24.61;19.56;99397.97;4992021;28;19969;-89
2023/01/04 02:38:26;;;;;;;;;;;;;;;24.53;19.60;99390.78;4982766;28;19922;-89
2023/01/04 02:40:58;;;;;;;;;;;;;;;24.34;19.66;99384.81;4978717;28;19952;-89
2023/01/04 02:46:22;;;;;;;;;;;;;;;23.91;20.06;99384.84;4991577;28;19944;-89
2023/01/04 02:51:36;;;;;;;;;;;;;;;24.24;20.28;99380.03;4988977;28;19929;-89
2023/01/04 02:54:05;;;;;;;;;;;;;;;24.07;20.74;99370.44;4991593;28;19921;-89
2023/01/04 02:56:40;;;;;;;;;;;;;;;24.29;19.97;99366.38;4983302;28;19928;-89
2023/01/04 02:59:09;;;;;;;;;;;;;;;24.13;20.06;99368.03;4992880;28;19981;-88
2023/01/04 03:07:25;;;;;;;;;;;;;;;24.48;20.22;99360.28;4975977;28;19948;-88
2023/01/04 03:09:54;;;;;;;;;;;;;;;24.53;19.73;99359.88;4997572;28;19926;-89
2023/01/04 03:12:31;;;;;;;;;;;;;;;24.16;19.83;99368.00;4991411;28;19922;-89
2023/01/04 03:15:06;;;;;;;;;;;;;;;24.30;20.04;99356.75;4994377;28;19968;-89
2023/01/04 03:17:38;;;;;;;;;;;;;;;23.77;20.39;99353.19;4984241;28;19922;-89
2023/01/04 03:20:06;;;;;;;;;;;;;;;23.76;20.16;99348.78;4986487;28;19922;-89
2023/01/04 03:36:46;;;;;;;;;;;;;;;22.74;20.79;99327.00;4993168;28;19929;-89
2023/01/04 03:50:56;;;;;;;;;;;;;;;23.40;19.93;99333.97;4984475;28;19989;-88
2023/01/04 03:53:23;;;;;;;;;;;;;;;23.49;19.89;99337.19;4982607;28;19936;-88
2023/01/04 03:55:50;;;;;;;;;;;;;;;23.61;19.84;99339.59;4976830;28;19929;-88
2023/01/04 03:58:17;;;;;;;;;;;;;;;23.53;19.43;99334.34;4985287;28;19976;-88
2023/01/04 04:00:44;;;;;;;;;;;;;;;23.43;19.52;99343.59;4986438;28;19961;-88
2023/01/04 04:03:10;;;;;;;;;;;;;;;23.55;19.44;99337.59;4983254;28;19921;-88
2023/01/04 04:08:28;;;;;;;;;;;;;;;22.82;18.96;99334.25;4983229;28;19925;-88
2023/01/04 04:11:28;;;;;;;;;;;;;;;22.26;20.01;99337.56;4992516;28;20424;-88
2023/01/04 04:13:47;;;;;;;;;;;;;;;22.52;19.75;99325.31;4984252;28;20405;-87
2023/01/04 04:16:14;;;;;;;;;;;;;;;21.45;20.44;99325.00;4981521;28;19922;-87
2023/01/04 04:18:40;;;;;;;;;;;;;;;20.68;21.56;99325.75;4993727;28;19925;-87
2023/01/04 04:21:06;;;;;;;;;;;;;;;21.15;21.30;99325.09;4986172;28;20291;-88
2023/01/04 04:23:32;;;;;;;;;;;;;;;21.91;20.49;99326.16;4973522;28;19922;-87
2023/01/04 04:25:58;;;;;;;;;;;;;;;22.40;20.03;99318.06;4987371;28;19921;-88
2023/01/04 04:28:24;;;;;;;;;;;;;;;22.35;20.30;99323.22;4992555;28;19925;-88
2023/01/04 04:30:50;;;;;;;;;;;;;;;22.60;19.91;99322.16;4986170;28;19922;-88
2023/01/04 04:33:16;;;;;;;;;;;;;;;22.54;19.65;99318.09;4963233;28;20255;-88
2023/01/04 04:35:42;;;;;;;;;;;;;;;22.07;20.60;99318.28;4992375;28;19918;-88
2023/01/04 04:38:08;;;;;;;;;;;;;;;22.56;19.63;99309.31;4977513;28;19930;-87
2023/01/04 04:43:21;;;;;;;;;;;;;;;22.92;19.36;99305.44;4988498;28;19988;-87
2023/01/04 04:45:47;;;;;;;;;;;;;;;23.03;19.72;99305.47;4984211;28;19926;-87
2023/01/04 04:48:13;;;;;;;;;;;;;;;23.10;19.22;99311.91;4981401;28;20321;-88
2023/01/04 04:50:39;;;;;;;;;;;;;;;23.20;19.40;99313.09;4981740;28;20393;-88
2023/01/04 04:53:05;;;;;;;;;;;;;;;23.35;18.94;99315.56;4968395;28;19953;-88
2023/01/04 04:55:31;;;;;;;;;;;;;;;23.51;18.55;99305.94;4985752;28;19922;-88
2023/01/04 04:57:57;;;;;;;;;;;;;;;23.40;18.47;99310.75;4983825;28;19922;-87
2023/01/04 05:00:23;;;;;;;;;;;;;;;23.28;18.61;99304.31;4986062;28;19926;-87
2023/01/04 05:02:49;;;;;;;;;;;;;;;22.98;18.68;99303.06;4987518;28;20444;-88
2023/01/04 05:05:16;;;;;;;;;;;;;;;22.81;19.17;99298.22;4986019;28;19918;-87
2023/01/04 05:07:42;;;;;;;;;;;;;;;22.91;18.90;99280.63;4980260;28;19922;-87
2023/01/04 05:10:08;;;;;;;;;;;;;;;22.53;19.08;99285.72;4982525;28;20032;-87
2023/01/04 05:15:19;;;;;;;;;;;;;;;22.71;19.29;99288.59;4984605;28;20340;-88
2023/01/04 05:17:45;;;;;;;;;;;;;;;22.97;18.79;99279.84;4977070;28;19976;-88
2023/01/04 05:20:11;;;;;;;;;;;;;;;22.57;19.18;99278.13;4966890;28;20318;-89
2023/01/04 05:22:37;;;;;;;;;;;;;;;22.38;19.20;99272.06;4978631;28;20484;-86
2023/01/04 05:25:03;;;;;;;;;;;;;;;22.57;18.89;99258.53;4987776;28;20016;-86
2023/01/04 05:27:30;;;;;;;;;;;;;;;22.40;19.11;99256.50;4982235;28;19969;-87
2023/01/04 05:32:40;;;;;;;;;;;;;;;22.61;18.65;99245.34;4983443;28;19928;-87
2023/01/04 05:35:06;;;;;;;;;;;;;;;22.24;18.98;99236.41;4966813;28;19922;-88
2023/01/04 05:37:32;;;;;;;;;;;;;;;22.08;19.17;99244.34;4986256;28;19929;-87
2023/01/04 05:39:58;;;;;;;;;;;;;;;22.19;19.54;99238.81;4987043;28;19930;-87
2023/01/04 05:42:24;;;;;;;;;;;;;;;22.26;19.26;99238.84;4976531;28;19976;-87
2023/01/04 05:44:51;;;;;;;;;;;;;;;22.12;19.39;99241.56;4989829;28;19972;-89
2023/01/04 05:47:17;;;;;;;;;;;;;;;22.27;19.70;99240.44;4985642;28;19929;-88
2023/01/04 05:49:43;;;;;;;;;;;;;;;22.36;19.17;99247.25;4996023;28;19944;-87
2023/01/04 05:52:09;;;;;;;;;;;;;;;22.52;18.84;99238.53;4986363;28;19926;-86
2023/01/04 05:54:35;;;;;;;;;;;;;;;22.66;18.57;99241.41;4986348;28;20366;-87
2023/01/04 05:57:01;;;;;;;;;;;;;;;22.67;18.47;99251.38;4985030;28;19941;-89
2023/01/04 05:59:27;;;;;;;;;;;;;;;22.51;18.67;99240.53;4983906;28;19933;-85
2023/01/04 06:01:53;;;;;;;;;;;;;;;22.36;18.94;99250.06;4981224;28;19930;-86
2023/01/04 06:04:19;;;;;;;;;;;;;;;22.52;18.63;99246.94;4986600;28;19922;-89
2023/01/04 06:06:45;;;;;;;;;;;;;;;22.16;19.27;99246.00;4987324;28;20289;-88
2023/01/04 06:09:11;;;;;;;;;;;;;;;21.78;19.21;99247.34;4992552;28;19929;-88
2023/01/04 06:11:37;;;;;;;;;;;;;;;21.72;19.60;99239.75;4975338;28;19984;-88
2023/01/04 06:14:03;;;;;;;;;;;;;;;21.78;19.79;99241.75;4978320;28;20370;-89
2023/01/04 06:16:29;;;;;;;;;;;;;;;21.77;19.81;99231.78;4979619;28;20301;-88
2023/01/04 06:18:56;;;;;;;;;;;;;;;21.81;19.65;99229.81;4988465;28;19921;-88
2023/01/04 06:21:24;;;;;;;;;;;;;;;21.80;19.61;99227.38;4997199;28;19989;-88
2023/01/04 06:23:50;;;;;;;;;;;;;;;21.82;19.66;99233.41;4979693;28;19926;-88
2023/01/04 06:26:16;;;;;;;;;;;;;;;21.89;19.69;99231.47;4995242;28;20302;-88
2023/01/04 06:28:42;;;;;;;;;;;;;;;22.08;19.62;99221.97;4996171;28;20396;-88
2023/01/04 06:31:09;;;;;;;;;;;;;;;22.22;18.99;99222.03;4997089;28;20351;-89
2023/01/04 06:33:35;;;;;;;;;;;;;;;22.34;19.14;99232.88;4977041;28;20005;-88
2023/01/04 06:36:02;;;;;;;;;;;;;;;22.02;19.15;99226.34;4993692;28;19922;-88
2023/01/04 06:38:29;;;;;;;;;;;;;;;22.14;18.91;99223.22;4987295;28;19925;-88
2023/01/04 06:40:55;;;;;;;;;;;;;;;22.19;18.93;99217.25;4979792;28;20007;-88
2023/01/04 06:43:21;;;;;;;;;;;;;;;22.10;19.10;99211.19;4997357;28;19917;-87
2023/01/04 06:45:47;;;;;;;;;;;;;;;22.12;18.84;99206.03;4984230;28;20402;-87
2023/01/04 06:48:13;;;;;;;;;;;;;;;22.20;19.04;99207.63;4978970;28;19918;-87
2023/01/04 06:50:39;;;;;;;;;;;;;;;22.02;18.96;99198.38;4987625;28;19945;-87
2023/01/04 06:53:05;;;;;;;;;;;;;;;21.95;19.40;99192.75;4976916;28;20033;-87
2023/01/04 06:55:34;;;;;;;;;;;;;;;22.14;19.12;99195.25;4966364;28;19922;-87
2023/01/04 06:58:03;;;;;;;;;;;;;;;22.22;19.20;99202.44;5003083;28;19921;-87
2023/01/04 07:00:29;;;;;;;;;;;;;;;22.31;19.22;99191.69;4980246;28;19992;-86
2023/01/04 07:02:55;;;;;;;;;;;;;;;22.31;19.25;99199.28;4975339;28;20076;-87
2023/01/04 07:05:21;;;;;;;;;;;;;;;22.28;19.23;99194.47;4979932;28;19922;-87
2023/01/04 07:07:47;;;;;;;;;;;;;;;22.51;19.40;99197.72;4975401;28;20305;-86
2023/01/04 07:10:13;;;;;;;;;;;;;;;22.41;19.14;99195.69;4988986;28;20020;-86
2023/01/04 07:12:40;;;;;;;;;;;;;;;22.39;18.67;99204.50;4986521;28;19922;-86
2023/01/04 07:15:06;;;;;;;;;;;;;;;22.27;19.36;99207.66;4989485;28;20008;-87
2023/01/04 07:17:32;;;;;;;;;;;;;;;22.58;19.27;99195.75;4991223;28;19922;-87
2023/01/04 07:19:58;;;;;;;;;;;;;;;22.86;18.91;99206.22;4992690;28;19955;-86
2023/01/04 07:22:24;;;;;;;;;;;;;;;22.73;18.87;99207.00;4986424;28;20393;-86
2023/01/04 07:24:50;;;;;;;;;;;;;;;22.41;19.43;99199.31;4991732;28;19922;-87
2023/01/04 07:27:16;;;;;;;;;;;;;;;22.56;19.09;99202.94;4990009;28;19964;-87
2023/01/04 07:29:43;;;;;;;;;;;;;;;22.78;19.18;99198.22;4988768;28;19917;-86
2023/01/04 07:32:09;;;;;;;;;;;;;;;22.97;19.16;99189.41;4995217;28;20410;-87
2023/01/04 07:34:36;;;;;;;;;;;;;;;23.09;19.01;99187.03;4995880;28;19913;-87
2023/01/04 07:37:02;;;;;;;;;;;;;;;23.17;18.94;99182.22;4993116;28;19922;-86
2023/01/04 07:39:29;;;;;;;;;;;;;;;23.27;19.05;99178.59;4988177;28;20371;-86
2023/01/04 07:41:55;;;;;;;;;;;;;;;23.32;19.63;99181.00;4976370;28;19922;-86
2023/01/04 07:44:21;;;;;;;;;;;;;;;23.48;19.08;99187.00;4980716;28;19922;-86
2023/01/04 07:46:47;;;;;;;;;;;;;;;23.31;19.11;99185.78;4985005;28;19961;-86
2023/01/04 07:49:15;;;;;;;;;;;;;;;23.13;19.63;99181.41;4986380;28;20036;-86
2023/01/04 07:51:41;;;;;;;;;;;;;;;23.30;19.50;99180.59;4994450;28;19928;-86
2023/01/04 07:54:08;;;;;;;;;;;;;;;23.30;19.95;99184.19;4978727;28;19932;-86
2023/01/04 07:56:34;;;;;;;;;;;;;;;23.49;19.94;99188.59;4993593;28;19917;-86
2023/01/04 07:59:00;;;;;;;;;;;;;;;23.77;19.36;99177.31;4969493;28;19929;-86
2023/01/04 08:01:26;;;;;;;;;;;;;;;23.74;19.17;99186.53;4968392;28;19917;-86
2023/01/04 08:03:53;;;;;;;;;;;;;;;23.80;19.05;99175.72;4982653;28;20033;-86
2023/01/04 08:06:20;;;;;;;;;;;;;;;23.83;19.47;99166.47;4976426;28;19922;-86
2023/01/04 08:08:46;;;;;;;;;;;;;;;23.87;19.01;99170.06;4977991;28;20477;-86
2023/01/04 08:11:14;;;;;;;;;;;;;;;23.96;19.22;99160.03;4995319;28;19918;-86
2023/01/04 08:13:40;;;;;;;;;;;;;;;23.99;19.10;99158.41;4983362;28;19922;-87
2023/01/04 08:16:06;;;;;;;;;;;;;;;23.97;19.22;99156.00;4989736;28;19967;-86
2023/01/04 08:18:32;;;;;;;;;;;;;;;24.15;19.10;99147.53;4977336;28;19918;-86
2023/01/04 08:21:08;;;;;;;;;;;;;;;23.81;19.43;99140.84;4984780;28;19929;-86
2023/01/04 08:23:34;;;;;;;;;;;;;;;23.66;19.52;99145.72;4968948;28;19978;-86
2023/01/04 08:26:02;;;;;;;;;;;;;;;23.25;20.01;99148.19;4983498;28;20324;-87
2023/01/04 08:28:28;;;;;;;;;;;;;;;23.27;20.30;99148.56;4987623;28;19918;-87
2023/01/04 08:30:54;;;;;;;;;;;;;;;23.60;19.92;99143.72;4992167;28;19921;-86
2023/01/04 08:33:20;;;;;;;;;;;;;;;23.96;20.04;99146.00;4986008;28;19965;-87
2023/01/04 08:35:46;;;;;;;;;;;;;;;24.13;19.53;99149.16;4989155;28;20329;-87
2023/01/04 08:38:12;;;;;;;;;;;;;;;23.98;19.79;99156.78;4991139;28;19922;-87
2023/01/04 08:40:38;;;;;;;;;;;;;;;24.01;20.18;99159.56;4988651;28;19925;-86
2023/01/04 08:43:04;;;;;;;;;;;;;;;24.07;19.82;99157.19;4992249;28;20016;-86
2023/01/04 08:45:30;;;;;;;;;;;;;;;24.38;19.77;99153.41;4983112;28;19922;-86
2023/01/04 08:47:56;;;;;;;;;;;;;;;24.39;19.91;99160.59;4982319;28;19922;-86
2023/01/04 08:50:22;;;;;;;;;;;;;;;24.50;20.08;99163.38;4968180;28;19981;-86
2023/01/04 08:52:48;;;;;;;;;;;;;;;24.54;19.71;99164.94;4965258;28;19930;-86
2023/01/04 08:55:15;;;;;;;;;;;;;;;24.34;20.29;99171.50;4978821;28;19924;-86
2023/01/04 08:57:41;;;;;;;;;;;;;;;24.32;20.11;99165.50;4957651;28;20393;-87
2023/01/04 09:00:08;;;;;;;;;;;;;;;24.30;20.07;99167.88;4985482;28;19926;-86
2023/01/04 09:02:34;;;;;;;;;;;;;;;24.36;19.82;99163.44;4992866;28;19922;-87
2023/01/04 09:05:02;;;;;;;;;;;;;;;24.14;20.46;99148.72;4994870;28;19921;-87
2023/01/04 09:07:29;;;;;;;;;;;;;;;24.31;20.45;99145.03;4984985;28;19945;-86
2023/01/04 09:09:56;;;;;;;;;;;;;;;24.60;19.83;99151.25;4982093;28;19929;-86
2023/01/04 09:12:22;;;;;;;;;;;;;;;24.36;19.99;99139.00;4991694;28;19922;-87
2023/01/04 09:14:48;;;;;;;;;;;;;;;24.12;21.43;99147.53;4992534;28;19968;-87
2023/01/04 09:17:14;;;;;;;;;;;;;;;24.20;21.30;99133.06;4970139;28;19918;-87
2023/01/04 09:19:41;;;;;;;;;;;;;;;24.69;20.33;99134.75;4978842;28;19958;-87
2023/01/04 09:22:07;;;;;;;;;;;;;;;24.83;20.33;99129.06;4992898;28;19969;-87
2023/01/04 09:24:33;;;;;;;;;;;;;;;24.57;20.70;99130.44;4989755;28;19922;-87
2023/01/04 09:26:59;;;;;;;;;;;;;;;24.70;20.68;99125.91;4967644;28;19949;-87
2023/01/04 09:29:26;;;;;;;;;;;;;;;24.80;20.37;99121.44;4991810;28;19918;-87
2023/01/04 09:31:53;;;;;;;;;;;;;;;24.90;20.46;99114.16;4991032;28;19926;-88
2023/01/04 09:34:19;;;;;;;;;;;;;;;24.89;19.83;99113.34;4986682;28;19977;-88
2023/01/04 09:36:46;;;;;;;;;;;;;;;24.69;20.23;99099.03;4976032;28;19918;-88
2023/01/04 09:39:13;;;;;;;;;;;;;;;24.86;20.25;99099.31;4989217;28;19928;-88
2023/01/04 09:41:43;;;;;;;;;;;;;;;24.85;20.18;99092.91;4985182;28;19961;-89
2023/01/04 09:44:10;;;;;;;;;;;;;;;24.74;20.42;99081.72;4984127;28;20409;-89
2023/01/04 09:46:43;;;;;;;;;;;;;;;25.10;20.08;99073.81;4970002;28;19972;-89
2023/01/04 09:49:12;;;;;;;;;;;;;;;25.27;20.04;99075.63;4975370;28;20404;-89
2023/01/04 09:51:40;;;;;;;;;;;;;;;25.49;19.70;99069.78;4988317;28;19957;-89
2023/01/04 09:54:19;;;;;;;;;;;;;;;25.55;19.44;99057.66;4989169;28;19922;-89
2023/01/04 09:56:49;;;;;;;;;;;;;;;25.44;20.01;99054.16;4982106;28;20008;-89
2023/01/04 09:59:16;;;;;;;;;;;;;;;25.64;19.88;99054.31;4986181;28;19952;-90
2023/01/04 10:01:59;;;;;;;;;;;;;;;25.36;20.30;99032.97;4966455;28;19933;-89
2023/01/04 10:04:30;;;;;;;;;;;;;;;25.26;19.68;99031.06;4987722;28;19972;-89
2023/01/04 10:06:57;;;;;;;;;;;;;;;25.83;19.87;99029.16;4984736;28;19926;-91
2023/01/04 10:09:23;;;;;;;;;;;;;;;25.77;19.92;99010.34;4986902;28;20283;-90
2023/01/04 10:12:04;;;;;;;;;;;;;;;25.67;19.45;99012.06;4987527;28;20458;-90
2023/01/04 10:14:39;;;;;;;;;;;;;;;25.68;19.74;98999.63;4990395;28;19933;-90
2023/01/04 10:17:15;;;;;;;;;;;;;;;25.64;20.08;98998.88;4957564;28;19925;-91
2023/01/04 10:19:53;;;;;;;;;;;;;;;26.19;19.79;98992.03;4957262;28;19926;-91
2023/01/04 10:22:31;;;;;;;;;;;;;;;26.12;19.95;98998.59;4990683;28;19933;-91
2023/01/04 10:25:04;;;;;;;;;;;;;;;25.58;19.87;98978.06;4974608;28;19926;-90
2023/01/04 10:27:35;;;;;;;;;;;;;;;25.84;19.59;98979.28;4974519;28;19926;-91
2023/01/04 10:30:04;;;;;;;;;;;;;;;25.94;19.73;98976.31;4976532;28;19922;-90
2023/01/04 10:32:35;;;;;;;;;;;;;;;25.91;20.08;98963.09;4990437;28;19948;-91
2023/01/04 10:35:28;;;;;;;;;;;;;;;24.96;20.05;98953.13;4977445;28;19972;-92
2023/01/04 10:38:21;;;;;;;;;;;;;;;25.03;20.82;98958.66;4994435;28;20009;-91
2023/01/04 10:40:59;;;;;;;;;;;;;;;25.50;20.35;98948.44;4991211;28;19932;-91
2023/01/04 10:43:56;;;;;;;;;;;;;;;25.06;20.41;98942.97;4978517;28;19921;-91
2023/01/04 10:47:01;;;;;;;;;;;;;;;26.05;19.30;98928.31;4992762;28;19921;-91
2023/01/04 10:49:36;;;;;;;;;;;;;;;26.06;19.41;98927.09;4972865;28;19972;-91
2023/01/04 10:52:10;;;;;;;;;;;;;;;26.34;19.52;98926.63;4965997;28;19923;-91
2023/01/04 10:55:25;;;;;;;;;;;;;;;;;;;;;
2023/01/04 10:58:12;;;;;;;;;;;;;;;26.88;18.06;98913.16;4973673;28;20378;-91
2023/01/04 11:01:00;;;;;;;;;;;;;;;26.78;19.41;98910.56;4954958;28;19922;-92
2023/01/04 11:03:36;;;;;;;;;;;;;;;26.94;18.52;98902.97;4969736;28;20386;-92
2023/01/04 11:06:22;;;;;;;;;;;;;;;27.20;18.92;98907.66;4973557;28;20378;-94
2023/01/04 11:09:17;;;;;;;;;;;;;;;27.05;18.71;98891.50;4943750;28;20013;-93
2023/01/04 11:11:44;;;;;;;;;;;;;;;27.18;18.45;98886.75;4961143;28;20322;-94
2023/01/04 11:14:11;;;;;;;;;;;;;;;27.44;18.75;98874.53;4980410;28;19934;-94
2023/01/04 11:16:39;;;;;;;;;;;;;;;27.46;18.44;98859.97;4968974;28;20317;-93
2023/01/04 11:19:06;;;;;;;;;;;;;;;27.95;18.48;98850.31;4994148;28;19929;-93
2023/01/04 11:21:36;;;;;;;;;;;;;;;27.51;18.07;98843.34;4993123;28;19922;-92
2023/01/04 11:24:07;;;;;;;;;;;;;;;27.19;19.19;98846.84;4990197;28;19929;-92
2023/01/04 11:26:37;;;;;;;;;;;;;;;27.67;18.68;98831.25;4992717;28;19922;-93
2023/01/04 11:29:17;;;;;;;;;;;;;;;27.76;18.59;98832.22;4987727;28;19922;-92
2023/01/04 11:31:55;;;;;;;;;;;;;;;27.32;18.85;98827.22;4990388;28;20386;-92
2023/01/04 11:34:40;;;;;;;;;;;;;;;27.74;19.01;98817.78;4981096;28;20275;-91
2023/01/04 11:37:21;;;;;;;;;;;;;;;27.93;18.30;98816.88;4994756;28;19921;-92
2023/01/04 11:39:47;;;;;;;;;;;;;;;27.89;18.28;98807.69;4990351;28;20024;-92
2023/01/04 11:42:18;;;;;;;;;;;;;;;27.72;18.47;98796.88;4967779;28;19933;-92
2023/01/04 11:44:56;;;;;;;;;;;;;;;27.51;18.78;98798.19;4992082;28;19961;-90
2023/01/04 11:47:27;;;;;;;;;;;;;;;27.46;20.28;98789.47;4992411;28;20017;-92
2023/01/04 11:49:54;;;;;;;;;;;;;;;27.33;19.24;98781.66;4986967;28;19936;-91
2023/01/04 11:52:26;;;;;;;;;;;;;;;27.40;18.90;98783.53;4989084;28;20057;-92
2023/01/04 11:54:52;;;;;;;;;;;;;;;27.42;18.68;98777.47;4975638;28;20377;-93
2023/01/04 11:57:18;;;;;;;;;;;;;;;26.61;21.09;98783.69;4994400;28;19932;-90
2023/01/04 11:59:45;;;;;;;;;;;;;;;27.28;19.06;98773.72;4988708;28;19930;-91
2023/01/04 12:02:22;;;;;;;;;;;;;;;26.56;19.39;98778.53;4989142;28;19922;-93
2023/01/04 12:04:49;;;;;;;;;;;;;;;26.92;18.67;98772.97;4988978;28;20020;-91
2023/01/04 12:07:35;;;;;;;;;;;;;;;26.73;19.19;98779.41;4993633;28;19926;-92
2023/01/04 12:10:14;;;;;;;;;;;;;;;27.16;19.27;98771.63;4971750;28;19929;-92
2023/01/04 12:12:40;;;;;;;;;;;;;;;27.38;19.35;98777.56;4972480;28;19922;-92
2023/01/04 12:15:13;;;;;;;;;;;;;;;27.78;19.30;98776.13;4963645;28;20020;-91
2023/01/04 12:17:51;;;;;;;;;;;;;;;27.35;18.97;98759.44;4964815;28;21062;-93
2023/01/04 12:20:19;;;;;;;;;;;;;;;26.85;19.39;98753.41;4974689;28;19926;-92
2023/01/04 12:22:45;;;;;;;;;;;;;;;26.53;20.23;98747.66;4964294;28;20310;-92
2023/01/04 12:25:23;;;;;;;;;;;;;;;26.93;19.54;98743.56;4975824;28;19926;-92
2023/01/04 12:27:56;;;;;;;;;;;;;;;27.37;19.84;98728.84;4970775;28;19926;-91
2023/01/04 12:30:35;;;;;;;;;;;;;;;27.09;19.39;98720.25;4969192;28;19937;-93
2023/01/04 12:33:21;;;;;;;;;;;;;;;27.47;18.88;98717.72;4971881;28;19922;-92
2023/01/04 12:35:57;;;;;;;;;;;;;;;26.88;20.25;98706.66;4968386;28;19922;-92
2023/01/04 12:38:42;;;;;;;;;;;;;;;26.72;19.07;98701.75;4965933;28;19922;-91
2023/01/04 12:41:08;;;;;;;;;;;;;;;25.62;21.16;98682.72;4967115;28;20009;-90
2023/01/04 12:43:37;;;;;;;;;;;;;;;26.74;19.41;98686.00;4965541;28;19922;-91
2023/01/04 12:49:29;;;;;;;;;;;;;;;27.17;19.41;98663.22;4966610;28;20010;-91
2023/01/04 12:52:07;;;;;;;;;;;;;;;26.69;18.81;98664.00;4961576;28;19973;-91
2023/01/04 12:54:48;;;;;;;;;;;;;;;27.01;18.90;98665.25;4969214;28;19932;-92
2023/01/04 12:57:17;;;;;;;;;;;;;;;27.11;18.20;98667.03;4968255;28;19922;-92
2023/01/04 12:59:54;;;;;;;;;;;;;;;27.75;18.37;98664.13;4972598;28;19950;-92
2023/01/04 13:02:24;;;;;;;;;;;;;;;26.76;18.73;98667.88;4968161;28;19930;-91
2023/01/04 13:04:52;;;;;;;;;;;;;;;26.57;18.81;98653.41;4962577;28;20020;-90
2023/01/04 13:07:24;;;;;;;;;;;;;;;26.08;18.39;98644.00;4965871;28;19922;-91
2023/01/04 13:09:52;;;;;;;;;;;;;;;26.66;19.59;98645.13;4974790;28;19921;-90
2023/01/04 13:12:28;;;;;;;;;;;;;;;26.67;19.11;98634.66;4987865;28;19926;-93
2023/01/04 13:15:00;;;;;;;;;;;;;;;26.45;18.87;98628.72;4986171;28;19957;-93
2023/01/04 13:17:26;;;;;;;;;;;;;;;26.38;19.07;98619.63;4991939;28;19929;-94
2023/01/04 13:19:53;;;;;;;;;;;;;;;26.11;19.08;98614.22;4981667;28;19932;-95
2023/01/04 13:22:19;;;;;;;;;;;;;;;26.76;18.01;98620.78;4982670;28;20048;-93
2023/01/04 13:24:46;;;;;;;;;;;;;;;26.85;17.98;98620.16;4982580;28;22576;-95
2023/01/04 13:27:17;;;;;;;;;;;;;;;26.00;18.71;98622.03;4986928;28;19973;-96
2023/01/04 13:29:43;;;;;;;;;;;;;;;25.22;20.18;98619.94;4975266;28;19922;-96
2023/01/04 13:32:22;;;;;;;;;;;;;;;26.01;18.98;98603.94;4986852;28;20012;-94
2023/01/04 13:34:51;;;;;;;;;;;;;;;26.36;18.37;98596.75;4991349;28;19926;-96
2023/01/04 13:37:17;;;;;;;;;;;;;;;26.46;18.48;98590.91;4994053;28;20081;-94
2023/01/04 13:39:47;;;;;;;;;;;;;;;26.94;18.37;98589.34;4994114;28;20016;-93
2023/01/04 13:42:30;;;;;;;;;;;;;;;25.81;19.60;98577.84;4993899;28;19918;-93
2023/01/04 13:44:59;;;;;;;;;;;;;;;26.62;18.75;98584.47;4976128;28;20281;-92
2023/01/04 13:47:26;;;;;;;;;;;;;;;26.88;18.44;98574.22;4990462;28;19922;-92
2023/01/04 13:49:52;;;;;;;;;;;;;;;27.26;17.68;98572.38;4992423;28;19932;-94